sensor_id;sensor_type;location;lat;lon;timestamp;temperature;humidity
71206;SHT31;58935;54.498;18.544;2023-07-30T00:01:36;18.11;83.09
71206;SHT31;58935;54.498;18.544;2023-07-30T00:04:02;18.07;83.11
71206;SHT31;58935;54.498;18.544;2023-07-30T00:06:27;18.00;83.18
71206;SHT31;58935;54.498;18.544;2023-07-30T00:08:53;17.95;83.21
71206;SHT31;58935;54.498;18.544;2023-07-30T00:11:18;17.90;83.40
71206;SHT31;58935;54.498;18.544;2023-07-30T00:13:43;17.85;83.54
71206;SHT31;58935;54.498;18.544;2023-07-30T00:16:09;17.81;83.66
71206;SHT31;58935;54.498;18.544;2023-07-30T00:18:34;17.78;83.69
71206;SHT31;58935;54.498;18.544;2023-07-30T00:20:59;17.75;83.81
71206;SHT31;58935;54.498;18.544;2023-07-30T00:23:25;17.73;84.03
71206;SHT31;58935;54.498;18.544;2023-07-30T00:25:50;17.68;84.12
71206;SHT31;58935;54.498;18.544;2023-07-30T00:28:16;17.66;84.19
71206;SHT31;58935;54.498;18.544;2023-07-30T00:30:41;17.64;84.35
71206;SHT31;58935;54.498;18.544;2023-07-30T00:33:07;17.62;84.46
71206;SHT31;58935;54.498;18.544;2023-07-30T00:35:32;17.58;84.65
71206;SHT31;58935;54.498;18.544;2023-07-30T00:37:57;17.58;84.77
71206;SHT31;58935;54.498;18.544;2023-07-30T00:40:23;17.55;85.02
71206;SHT31;58935;54.498;18.544;2023-07-30T00:42:48;17.54;85.02
71206;SHT31;58935;54.498;18.544;2023-07-30T00:45:13;17.54;85.19
71206;SHT31;58935;54.498;18.544;2023-07-30T00:47:40;17.53;85.19
71206;SHT31;58935;54.498;18.544;2023-07-30T00:50:07;17.52;85.22
71206;SHT31;58935;54.498;18.544;2023-07-30T00:52:34;17.52;85.16
71206;SHT31;58935;54.498;18.544;2023-07-30T00:55:01;17.51;85.19
71206;SHT31;58935;54.498;18.544;2023-07-30T00:57:28;17.51;85.14
71206;SHT31;58935;54.498;18.544;2023-07-30T00:59:55;17.51;85.15
71206;SHT31;58935;54.498;18.544;2023-07-30T01:02:22;17.50;85.05
71206;SHT31;58935;54.498;18.544;2023-07-30T01:04:48;17.49;85.04
71206;SHT31;58935;54.498;18.544;2023-07-30T01:07:13;17.47;85.07
71206;SHT31;58935;54.498;18.544;2023-07-30T01:09:39;17.45;85.15
71206;SHT31;58935;54.498;18.544;2023-07-30T01:12:05;17.43;85.14
71206;SHT31;58935;54.498;18.544;2023-07-30T01:14:32;17.41;85.22
71206;SHT31;58935;54.498;18.544;2023-07-30T01:16:58;17.38;85.28
71206;SHT31;58935;54.498;18.544;2023-07-30T01:19:23;17.35;85.39
71206;SHT31;58935;54.498;18.544;2023-07-30T01:21:49;17.33;85.40
71206;SHT31;58935;54.498;18.544;2023-07-30T01:24:14;17.31;85.30
71206;SHT31;58935;54.498;18.544;2023-07-30T01:26:41;17.28;85.27
71206;SHT31;58935;54.498;18.544;2023-07-30T01:29:14;17.25;85.15
71206;SHT31;58935;54.498;18.544;2023-07-30T01:31:48;17.23;85.09
71206;SHT31;58935;54.498;18.544;2023-07-30T01:34:23;17.21;85.06
71206;SHT31;58935;54.498;18.544;2023-07-30T01:36:53;17.18;85.10
71206;SHT31;58935;54.498;18.544;2023-07-30T01:39:21;17.16;85.17
71206;SHT31;58935;54.498;18.544;2023-07-30T01:41:47;17.12;85.28
71206;SHT31;58935;54.498;18.544;2023-07-30T01:44:13;17.10;85.42
71206;SHT31;58935;54.498;18.544;2023-07-30T01:46:38;17.08;85.50
71206;SHT31;58935;54.498;18.544;2023-07-30T01:49:03;17.06;85.57
71206;SHT31;58935;54.498;18.544;2023-07-30T01:51:29;17.03;85.64
71206;SHT31;58935;54.498;18.544;2023-07-30T01:53:54;17.02;85.88
71206;SHT31;58935;54.498;18.544;2023-07-30T01:56:19;17.00;86.00
71206;SHT31;58935;54.498;18.544;2023-07-30T01:58:45;16.99;86.01
71206;SHT31;58935;54.498;18.544;2023-07-30T02:01:10;16.97;86.04
71206;SHT31;58935;54.498;18.544;2023-07-30T02:03:36;16.98;86.03
71206;SHT31;58935;54.498;18.544;2023-07-30T02:06:01;16.97;86.03
71206;SHT31;58935;54.498;18.544;2023-07-30T02:08:26;16.97;86.02
71206;SHT31;58935;54.498;18.544;2023-07-30T02:10:55;16.97;86.03
71206;SHT31;58935;54.498;18.544;2023-07-30T02:13:23;16.97;86.08
71206;SHT31;58935;54.498;18.544;2023-07-30T02:15:49;16.96;86.09
71206;SHT31;58935;54.498;18.544;2023-07-30T02:18:14;16.97;86.02
71206;SHT31;58935;54.498;18.544;2023-07-30T02:20:40;16.96;86.01
71206;SHT31;58935;54.498;18.544;2023-07-30T02:23:05;16.97;86.00
71206;SHT31;58935;54.498;18.544;2023-07-30T02:25:31;16.97;85.97
71206;SHT31;58935;54.498;18.544;2023-07-30T02:27:56;16.96;86.08
71206;SHT31;58935;54.498;18.544;2023-07-30T02:30:23;16.95;86.02
71206;SHT31;58935;54.498;18.544;2023-07-30T02:32:49;16.95;86.00
71206;SHT31;58935;54.498;18.544;2023-07-30T02:35:14;16.94;85.97
71206;SHT31;58935;54.498;18.544;2023-07-30T02:37:40;16.94;85.92
71206;SHT31;58935;54.498;18.544;2023-07-30T02:40:05;16.94;85.97
71206;SHT31;58935;54.498;18.544;2023-07-30T02:42:31;16.93;86.00
71206;SHT31;58935;54.498;18.544;2023-07-30T02:44:57;16.92;86.00
71206;SHT31;58935;54.498;18.544;2023-07-30T02:47:22;16.93;86.10
71206;SHT31;58935;54.498;18.544;2023-07-30T02:49:47;16.93;86.08
71206;SHT31;58935;54.498;18.544;2023-07-30T02:52:13;16.91;86.09
71206;SHT31;58935;54.498;18.544;2023-07-30T02:54:38;16.90;86.15
71206;SHT31;58935;54.498;18.544;2023-07-30T02:57:03;16.90;86.10
71206;SHT31;58935;54.498;18.544;2023-07-30T02:59:29;16.89;86.05
71206;SHT31;58935;54.498;18.544;2023-07-30T03:01:55;16.90;86.01
71206;SHT31;58935;54.498;18.544;2023-07-30T03:04:20;16.90;86.06
71206;SHT31;58935;54.498;18.544;2023-07-30T03:06:45;16.90;86.10
71206;SHT31;58935;54.498;18.544;2023-07-30T03:09:10;16.91;86.10
71206;SHT31;58935;54.498;18.544;2023-07-30T03:11:36;16.90;86.03
71206;SHT31;58935;54.498;18.544;2023-07-30T03:14:01;16.92;86.04
71206;SHT31;58935;54.498;18.544;2023-07-30T03:16:26;16.92;86.03
71206;SHT31;58935;54.498;18.544;2023-07-30T03:18:52;16.93;86.00
71206;SHT31;58935;54.498;18.544;2023-07-30T03:21:17;16.95;85.94
71206;SHT31;58935;54.498;18.544;2023-07-30T03:23:42;16.96;85.92
71206;SHT31;58935;54.498;18.544;2023-07-30T03:26:09;16.98;85.89
71206;SHT31;58935;54.498;18.544;2023-07-30T03:28:35;17.00;85.89
71206;SHT31;58935;54.498;18.544;2023-07-30T03:31:01;17.02;85.90
71206;SHT31;58935;54.498;18.544;2023-07-30T03:33:26;17.02;85.94
71206;SHT31;58935;54.498;18.544;2023-07-30T03:35:51;17.05;85.93
71206;SHT31;58935;54.498;18.544;2023-07-30T03:38:17;17.06;85.92
71206;SHT31;58935;54.498;18.544;2023-07-30T03:40:42;17.07;85.99
71206;SHT31;58935;54.498;18.544;2023-07-30T03:43:08;17.09;86.12
71206;SHT31;58935;54.498;18.544;2023-07-30T03:45:33;17.12;86.14
71206;SHT31;58935;54.498;18.544;2023-07-30T03:47:59;17.16;86.04
71206;SHT31;58935;54.498;18.544;2023-07-30T03:53:27;17.23;85.97
71206;SHT31;58935;54.498;18.544;2023-07-30T03:55:53;17.27;85.89
71206;SHT31;58935;54.498;18.544;2023-07-30T03:58:19;17.30;85.85
71206;SHT31;58935;54.498;18.544;2023-07-30T04:00:44;17.34;85.89
71206;SHT31;58935;54.498;18.544;2023-07-30T04:03:09;17.37;85.96
71206;SHT31;58935;54.498;18.544;2023-07-30T04:05:34;17.42;85.92
71206;SHT31;58935;54.498;18.544;2023-07-30T04:08:00;17.47;85.89
71206;SHT31;58935;54.498;18.544;2023-07-30T04:10:25;17.51;85.83
71206;SHT31;58935;54.498;18.544;2023-07-30T04:12:50;17.55;85.82
71206;SHT31;58935;54.498;18.544;2023-07-30T04:15:16;17.60;85.80
71206;SHT31;58935;54.498;18.544;2023-07-30T04:17:41;17.64;85.74
71206;SHT31;58935;54.498;18.544;2023-07-30T04:20:07;17.68;85.76
71206;SHT31;58935;54.498;18.544;2023-07-30T04:22:35;17.71;85.68
71206;SHT31;58935;54.498;18.544;2023-07-30T04:25:02;17.76;85.67
71206;SHT31;58935;54.498;18.544;2023-07-30T04:27:28;17.82;85.61
71206;SHT31;58935;54.498;18.544;2023-07-30T04:29:53;17.87;85.46
71206;SHT31;58935;54.498;18.544;2023-07-30T04:32:19;17.91;85.34
71206;SHT31;58935;54.498;18.544;2023-07-30T04:34:44;17.96;85.33
71206;SHT31;58935;54.498;18.544;2023-07-30T04:37:09;18.02;85.24
71206;SHT31;58935;54.498;18.544;2023-07-30T04:39:35;18.07;85.15
71206;SHT31;58935;54.498;18.544;2023-07-30T04:42:01;18.16;85.04
71206;SHT31;58935;54.498;18.544;2023-07-30T04:44:28;18.23;84.89
71206;SHT31;58935;54.498;18.544;2023-07-30T04:46:53;18.29;84.64
71206;SHT31;58935;54.498;18.544;2023-07-30T04:49:19;18.37;84.51
71206;SHT31;58935;54.498;18.544;2023-07-30T04:51:44;18.42;84.36
71206;SHT31;58935;54.498;18.544;2023-07-30T04:54:09;18.48;84.24
71206;SHT31;58935;54.498;18.544;2023-07-30T04:56:35;18.55;84.11
71206;SHT31;58935;54.498;18.544;2023-07-30T04:59:01;18.61;83.99
71206;SHT31;58935;54.498;18.544;2023-07-30T05:01:27;18.65;83.76
71206;SHT31;58935;54.498;18.544;2023-07-30T05:03:53;18.69;83.54
71206;SHT31;58935;54.498;18.544;2023-07-30T05:06:18;18.73;83.41
71206;SHT31;58935;54.498;18.544;2023-07-30T05:08:44;18.79;83.30
71206;SHT31;58935;54.498;18.544;2023-07-30T05:11:09;18.83;83.09
71206;SHT31;58935;54.498;18.544;2023-07-30T05:13:35;18.84;83.08
71206;SHT31;58935;54.498;18.544;2023-07-30T05:16:00;18.88;83.03
71206;SHT31;58935;54.498;18.544;2023-07-30T05:18:26;18.89;82.91
71206;SHT31;58935;54.498;18.544;2023-07-30T05:20:52;18.92;82.86
71206;SHT31;58935;54.498;18.544;2023-07-30T05:23:19;18.93;82.76
71206;SHT31;58935;54.498;18.544;2023-07-30T05:25:45;18.93;82.66
71206;SHT31;58935;54.498;18.544;2023-07-30T05:28:11;18.92;82.54
71206;SHT31;58935;54.498;18.544;2023-07-30T05:30:36;18.95;82.62
71206;SHT31;58935;54.498;18.544;2023-07-30T05:33:02;19.00;82.59
71206;SHT31;58935;54.498;18.544;2023-07-30T05:35:28;19.03;82.45
71206;SHT31;58935;54.498;18.544;2023-07-30T05:37:53;19.05;82.41
71206;SHT31;58935;54.498;18.544;2023-07-30T05:40:18;19.11;82.39
71206;SHT31;58935;54.498;18.544;2023-07-30T05:42:44;19.17;82.13
71206;SHT31;58935;54.498;18.544;2023-07-30T05:45:09;19.21;82.09
71206;SHT31;58935;54.498;18.544;2023-07-30T05:47:36;19.25;81.94
71206;SHT31;58935;54.498;18.544;2023-07-30T05:50:02;19.28;81.69
71206;SHT31;58935;54.498;18.544;2023-07-30T05:52:28;19.31;81.50
71206;SHT31;58935;54.498;18.544;2023-07-30T05:54:53;19.34;81.16
71206;SHT31;58935;54.498;18.544;2023-07-30T05:57:18;19.37;81.03
71206;SHT31;58935;54.498;18.544;2023-07-30T05:59:44;19.41;80.88
71206;SHT31;58935;54.498;18.544;2023-07-30T06:02:09;19.42;80.92
71206;SHT31;58935;54.498;18.544;2023-07-30T06:04:34;19.41;80.84
71206;SHT31;58935;54.498;18.544;2023-07-30T06:07:00;19.42;80.93
71206;SHT31;58935;54.498;18.544;2023-07-30T06:09:27;19.46;81.15
71206;SHT31;58935;54.498;18.544;2023-07-30T06:11:53;19.53;81.03
71206;SHT31;58935;54.498;18.544;2023-07-30T06:14:18;19.57;80.89
71206;SHT31;58935;54.498;18.544;2023-07-30T06:16:43;19.59;80.78
71206;SHT31;58935;54.498;18.544;2023-07-30T06:19:09;19.61;80.71
71206;SHT31;58935;54.498;18.544;2023-07-30T06:21:34;19.62;80.63
71206;SHT31;58935;54.498;18.544;2023-07-30T06:24:00;19.62;80.48
71206;SHT31;58935;54.498;18.544;2023-07-30T06:26:25;19.64;80.60
71206;SHT31;58935;54.498;18.544;2023-07-30T06:28:50;19.70;80.67
71206;SHT31;58935;54.498;18.544;2023-07-30T06:31:16;19.75;80.20
71206;SHT31;58935;54.498;18.544;2023-07-30T06:33:41;19.78;79.87
71206;SHT31;58935;54.498;18.544;2023-07-30T06:36:07;19.81;79.48
71206;SHT31;58935;54.498;18.544;2023-07-30T06:38:32;19.85;79.67
71206;SHT31;58935;54.498;18.544;2023-07-30T06:40:57;19.93;79.65
71206;SHT31;58935;54.498;18.544;2023-07-30T06:43:23;19.99;79.04
71206;SHT31;58935;54.498;18.544;2023-07-30T06:45:49;20.05;78.83
71206;SHT31;58935;54.498;18.544;2023-07-30T06:48:15;20.11;78.56
71206;SHT31;58935;54.498;18.544;2023-07-30T06:50:41;20.16;78.14
71206;SHT31;58935;54.498;18.544;2023-07-30T06:53:07;20.19;77.72
71206;SHT31;58935;54.498;18.544;2023-07-30T06:55:32;20.21;77.64
71206;SHT31;58935;54.498;18.544;2023-07-30T06:57:58;20.24;77.51
71206;SHT31;58935;54.498;18.544;2023-07-30T07:00:24;20.24;76.92
71206;SHT31;58935;54.498;18.544;2023-07-30T07:02:49;20.23;76.69
71206;SHT31;58935;54.498;18.544;2023-07-30T07:05:14;20.24;76.96
71206;SHT31;58935;54.498;18.544;2023-07-30T07:07:40;20.28;76.87
71206;SHT31;58935;54.498;18.544;2023-07-30T07:10:06;20.31;76.48
71206;SHT31;58935;54.498;18.544;2023-07-30T07:12:32;20.34;76.15
71206;SHT31;58935;54.498;18.544;2023-07-30T07:14:57;20.37;76.25
71206;SHT31;58935;54.498;18.544;2023-07-30T07:17:24;20.42;76.08
71206;SHT31;58935;54.498;18.544;2023-07-30T07:19:49;20.46;75.63
71206;SHT31;58935;54.498;18.544;2023-07-30T07:22:15;20.51;75.42
71206;SHT31;58935;54.498;18.544;2023-07-30T07:24:42;20.61;75.18
71206;SHT31;58935;54.498;18.544;2023-07-30T07:27:09;20.67;74.32
71206;SHT31;58935;54.498;18.544;2023-07-30T07:29:35;20.75;74.42
71206;SHT31;58935;54.498;18.544;2023-07-30T07:32:01;20.85;74.29
71206;SHT31;58935;54.498;18.544;2023-07-30T07:34:26;20.94;73.87
71206;SHT31;58935;54.498;18.544;2023-07-30T07:36:52;21.00;73.82
71206;SHT31;58935;54.498;18.544;2023-07-30T07:39:17;21.03;73.28
71206;SHT31;58935;54.498;18.544;2023-07-30T07:41:43;21.04;73.28
71206;SHT31;58935;54.498;18.544;2023-07-30T07:44:09;21.07;73.41
71206;SHT31;58935;54.498;18.544;2023-07-30T07:46:34;21.10;73.00
71206;SHT31;58935;54.498;18.544;2023-07-30T07:48:59;21.10;72.69
71206;SHT31;58935;54.498;18.544;2023-07-30T07:51:25;21.09;72.22
71206;SHT31;58935;54.498;18.544;2023-07-30T07:53:50;21.12;72.60
71206;SHT31;58935;54.498;18.544;2023-07-30T07:56:16;21.15;71.81
71206;SHT31;58935;54.498;18.544;2023-07-30T07:58:41;21.18;71.60
71206;SHT31;58935;54.498;18.544;2023-07-30T08:01:08;21.23;71.89
71206;SHT31;58935;54.498;18.544;2023-07-30T08:03:33;21.29;72.13
71206;SHT31;58935;54.498;18.544;2023-07-30T08:05:59;21.37;72.38
71206;SHT31;58935;54.498;18.544;2023-07-30T08:08:27;21.46;72.35
71206;SHT31;58935;54.498;18.544;2023-07-30T08:10:53;21.56;71.58
71206;SHT31;58935;54.498;18.544;2023-07-30T08:13:19;21.66;70.74
71206;SHT31;58935;54.498;18.544;2023-07-30T08:15:45;21.73;70.19
71206;SHT31;58935;54.498;18.544;2023-07-30T08:18:11;21.78;70.06
71206;SHT31;58935;54.498;18.544;2023-07-30T08:20:37;21.84;69.00
71206;SHT31;58935;54.498;18.544;2023-07-30T08:23:02;21.84;69.10
71206;SHT31;58935;54.498;18.544;2023-07-30T08:25:27;21.86;68.92
71206;SHT31;58935;54.498;18.544;2023-07-30T08:27:53;21.87;68.96
71206;SHT31;58935;54.498;18.544;2023-07-30T08:30:18;21.90;69.51
71206;SHT31;58935;54.498;18.544;2023-07-30T08:32:43;21.94;69.44
71206;SHT31;58935;54.498;18.544;2023-07-30T08:35:09;22.02;69.22
71206;SHT31;58935;54.498;18.544;2023-07-30T08:37:35;22.09;68.58
71206;SHT31;58935;54.498;18.544;2023-07-30T08:40:01;22.12;68.19
71206;SHT31;58935;54.498;18.544;2023-07-30T08:42:27;22.17;67.66
71206;SHT31;58935;54.498;18.544;2023-07-30T08:44:53;22.23;67.44
71206;SHT31;58935;54.498;18.544;2023-07-30T08:47:18;22.24;67.29
71206;SHT31;58935;54.498;18.544;2023-07-30T08:49:43;22.32;67.24
71206;SHT31;58935;54.498;18.544;2023-07-30T08:52:09;22.40;66.93
71206;SHT31;58935;54.498;18.544;2023-07-30T08:54:36;22.45;67.06
71206;SHT31;58935;54.498;18.544;2023-07-30T08:57:04;22.53;66.96
71206;SHT31;58935;54.498;18.544;2023-07-30T08:59:31;22.60;66.24
71206;SHT31;58935;54.498;18.544;2023-07-30T09:02:08;22.64;65.91
71206;SHT31;58935;54.498;18.544;2023-07-30T09:04:51;22.73;65.34
71206;SHT31;58935;54.498;18.544;2023-07-30T09:07:23;22.77;64.43
71206;SHT31;58935;54.498;18.544;2023-07-30T09:09:49;22.83;64.71
71206;SHT31;58935;54.498;18.544;2023-07-30T09:12:16;22.92;64.67
71206;SHT31;58935;54.498;18.544;2023-07-30T09:14:41;22.99;64.07
71206;SHT31;58935;54.498;18.544;2023-07-30T09:17:11;23.04;63.38
71206;SHT31;58935;54.498;18.544;2023-07-30T09:19:43;23.13;63.34
71206;SHT31;58935;54.498;18.544;2023-07-30T09:22:08;23.29;62.83
71206;SHT31;58935;54.498;18.544;2023-07-30T09:24:34;23.41;62.51
71206;SHT31;58935;54.498;18.544;2023-07-30T09:27:02;23.44;61.03
71206;SHT31;58935;54.498;18.544;2023-07-30T09:29:28;23.50;61.22
71206;SHT31;58935;54.498;18.544;2023-07-30T09:31:54;23.57;59.58
71206;SHT31;58935;54.498;18.544;2023-07-30T09:34:21;23.64;59.18
71206;SHT31;58935;54.498;18.544;2023-07-30T09:36:50;23.69;59.49
71206;SHT31;58935;54.498;18.544;2023-07-30T09:39:21;23.76;59.34
71206;SHT31;58935;54.498;18.544;2023-07-30T09:41:49;23.85;59.02
71206;SHT31;58935;54.498;18.544;2023-07-30T09:44:17;23.98;58.84
71206;SHT31;58935;54.498;18.544;2023-07-30T09:46:46;24.07;58.34
71206;SHT31;58935;54.498;18.544;2023-07-30T09:49:15;24.15;58.00
71206;SHT31;58935;54.498;18.544;2023-07-30T09:51:41;24.23;57.60
71206;SHT31;58935;54.498;18.544;2023-07-30T09:54:07;24.34;57.86
71206;SHT31;58935;54.498;18.544;2023-07-30T09:56:37;24.50;58.27
71206;SHT31;58935;54.498;18.544;2023-07-30T09:59:05;24.69;58.09
71206;SHT31;58935;54.498;18.544;2023-07-30T10:01:36;24.84;56.14
71206;SHT31;58935;54.498;18.544;2023-07-30T10:04:08;24.88;55.43
71206;SHT31;58935;54.498;18.544;2023-07-30T10:06:36;24.90;54.70
71206;SHT31;58935;54.498;18.544;2023-07-30T10:09:10;24.91;54.51
71206;SHT31;58935;54.498;18.544;2023-07-30T10:11:39;24.83;53.96
71206;SHT31;58935;54.498;18.544;2023-07-30T10:14:06;24.84;54.20
71206;SHT31;58935;54.498;18.544;2023-07-30T10:16:33;24.88;54.36
71206;SHT31;58935;54.498;18.544;2023-07-30T10:18:59;24.85;57.06
71206;SHT31;58935;54.498;18.544;2023-07-30T10:21:25;24.72;58.18
71206;SHT31;58935;54.498;18.544;2023-07-30T10:24:02;24.58;58.59
71206;SHT31;58935;54.498;18.544;2023-07-30T10:26:30;24.43;58.71
71206;SHT31;58935;54.498;18.544;2023-07-30T10:31:42;23.99;61.43
71206;SHT31;58935;54.498;18.544;2023-07-30T10:34:19;23.71;62.15
71206;SHT31;58935;54.498;18.544;2023-07-30T10:36:49;23.45;63.06
71206;SHT31;58935;54.498;18.544;2023-07-30T10:39:19;23.31;63.21
71206;SHT31;58935;54.498;18.544;2023-07-30T10:41:50;23.25;63.67
71206;SHT31;58935;54.498;18.544;2023-07-30T10:44:21;23.10;64.29
71206;SHT31;58935;54.498;18.544;2023-07-30T10:46:56;22.88;65.20
71206;SHT31;58935;54.498;18.544;2023-07-30T10:49:24;22.69;66.30
71206;SHT31;58935;54.498;18.544;2023-07-30T10:51:51;22.54;68.31
71206;SHT31;58935;54.498;18.544;2023-07-30T10:54:18;22.35;69.78
71206;SHT31;58935;54.498;18.544;2023-07-30T10:56:44;22.19;70.92
71206;SHT31;58935;54.498;18.544;2023-07-30T10:59:10;22.08;71.20
71206;SHT31;58935;54.498;18.544;2023-07-30T11:01:41;21.99;71.16
71206;SHT31;58935;54.498;18.544;2023-07-30T11:04:09;21.94;70.66
71206;SHT31;58935;54.498;18.544;2023-07-30T11:06:37;21.88;70.97
71206;SHT31;58935;54.498;18.544;2023-07-30T11:09:03;21.84;71.55
71206;SHT31;58935;54.498;18.544;2023-07-30T11:11:30;21.82;71.93
71206;SHT31;58935;54.498;18.544;2023-07-30T11:13:56;21.76;72.21
71206;SHT31;58935;54.498;18.544;2023-07-30T11:16:24;21.70;72.77
71206;SHT31;58935;54.498;18.544;2023-07-30T11:18:50;21.64;73.01
71206;SHT31;58935;54.498;18.544;2023-07-30T11:21:15;21.59;73.74
71206;SHT31;58935;54.498;18.544;2023-07-30T11:23:43;21.54;74.44
71206;SHT31;58935;54.498;18.544;2023-07-30T11:26:15;21.47;74.61
71206;SHT31;58935;54.498;18.544;2023-07-30T11:28:43;21.43;74.79
71206;SHT31;58935;54.498;18.544;2023-07-30T11:31:10;21.42;75.04
71206;SHT31;58935;54.498;18.544;2023-07-30T11:33:39;21.40;75.00
71206;SHT31;58935;54.498;18.544;2023-07-30T11:36:09;21.35;75.04
71206;SHT31;58935;54.498;18.544;2023-07-30T11:38:37;21.32;75.16
71206;SHT31;58935;54.498;18.544;2023-07-30T11:41:04;21.33;75.21
71206;SHT31;58935;54.498;18.544;2023-07-30T11:43:35;21.37;74.95
71206;SHT31;58935;54.498;18.544;2023-07-30T11:46:06;21.38;74.83
71206;SHT31;58935;54.498;18.544;2023-07-30T11:48:41;21.42;74.61
71206;SHT31;58935;54.498;18.544;2023-07-30T11:53:53;21.56;74.39
71206;SHT31;58935;54.498;18.544;2023-07-30T11:56:28;21.72;74.55
71206;SHT31;58935;54.498;18.544;2023-07-30T11:58:56;21.93;74.71
71206;SHT31;58935;54.498;18.544;2023-07-30T12:01:29;22.12;73.75
71206;SHT31;58935;54.498;18.544;2023-07-30T12:03:56;22.33;73.09
71206;SHT31;58935;54.498;18.544;2023-07-30T12:06:23;22.58;72.71
71206;SHT31;58935;54.498;18.544;2023-07-30T12:08:49;22.83;71.88
71206;SHT31;58935;54.498;18.544;2023-07-30T12:11:17;23.03;71.36
71206;SHT31;58935;54.498;18.544;2023-07-30T12:13:45;23.20;71.21
71206;SHT31;58935;54.498;18.544;2023-07-30T12:16:12;23.43;70.60
71206;SHT31;58935;54.498;18.544;2023-07-30T12:18:39;23.65;68.29
71206;SHT31;58935;54.498;18.544;2023-07-30T12:21:05;23.82;67.36
71206;SHT31;58935;54.498;18.544;2023-07-30T12:23:33;23.94;66.99
71206;SHT31;58935;54.498;18.544;2023-07-30T12:25:59;24.00;66.51
71206;SHT31;58935;54.498;18.544;2023-07-30T12:28:25;23.99;65.78
71206;SHT31;58935;54.498;18.544;2023-07-30T12:30:51;24.05;65.82
71206;SHT31;58935;54.498;18.544;2023-07-30T12:33:16;24.13;64.72
71206;SHT31;58935;54.498;18.544;2023-07-30T12:35:42;24.31;65.38
71206;SHT31;58935;54.498;18.544;2023-07-30T12:38:07;24.51;64.11
71206;SHT31;58935;54.498;18.544;2023-07-30T12:40:32;24.69;61.12
71206;SHT31;58935;54.498;18.544;2023-07-30T12:43:02;24.84;60.59
71206;SHT31;58935;54.498;18.544;2023-07-30T12:45:28;25.02;60.57
71206;SHT31;58935;54.498;18.544;2023-07-30T12:47:55;25.24;60.20
71206;SHT31;58935;54.498;18.544;2023-07-30T12:50:20;25.41;60.18
71206;SHT31;58935;54.498;18.544;2023-07-30T12:52:46;25.54;59.56
71206;SHT31;58935;54.498;18.544;2023-07-30T12:55:11;25.61;59.14
71206;SHT31;58935;54.498;18.544;2023-07-30T12:57:36;25.57;58.09
71206;SHT31;58935;54.498;18.544;2023-07-30T13:00:02;25.49;58.56
71206;SHT31;58935;54.498;18.544;2023-07-30T13:02:29;25.33;61.08
71206;SHT31;58935;54.498;18.544;2023-07-30T13:04:58;24.74;63.45
71206;SHT31;58935;54.498;18.544;2023-07-30T13:07:24;24.18;65.47
71206;SHT31;58935;54.498;18.544;2023-07-30T13:09:58;23.74;66.58
71206;SHT31;58935;54.498;18.544;2023-07-30T13:12:28;23.30;68.20
71206;SHT31;58935;54.498;18.544;2023-07-30T13:14:54;22.92;69.42
71206;SHT31;58935;54.498;18.544;2023-07-30T13:17:19;22.69;70.68
71206;SHT31;58935;54.498;18.544;2023-07-30T13:19:45;22.58;71.63
71206;SHT31;58935;54.498;18.544;2023-07-30T13:22:10;22.53;71.70
71206;SHT31;58935;54.498;18.544;2023-07-30T13:24:35;22.58;71.81
71206;SHT31;58935;54.498;18.544;2023-07-30T13:27:01;22.71;71.60
71206;SHT31;58935;54.498;18.544;2023-07-30T13:29:27;22.83;70.97
71206;SHT31;58935;54.498;18.544;2023-07-30T13:31:52;22.81;70.80
71206;SHT31;58935;54.498;18.544;2023-07-30T13:34:18;22.69;71.63
71206;SHT31;58935;54.498;18.544;2023-07-30T13:36:43;22.60;71.93
71206;SHT31;58935;54.498;18.544;2023-07-30T13:39:09;22.41;72.47
71206;SHT31;58935;54.498;18.544;2023-07-30T13:41:34;22.20;72.21
71206;SHT31;58935;54.498;18.544;2023-07-30T13:44:00;22.01;72.38
71206;SHT31;58935;54.498;18.544;2023-07-30T13:46:25;21.86;72.77
71206;SHT31;58935;54.498;18.544;2023-07-30T13:48:50;21.75;72.85
71206;SHT31;58935;54.498;18.544;2023-07-30T13:51:16;21.70;72.44
71206;SHT31;58935;54.498;18.544;2023-07-30T13:53:41;21.68;72.32
71206;SHT31;58935;54.498;18.544;2023-07-30T13:56:07;21.66;72.62
71206;SHT31;58935;54.498;18.544;2023-07-30T13:58:32;21.73;72.01
71206;SHT31;58935;54.498;18.544;2023-07-30T14:00:57;21.77;71.73
71206;SHT31;58935;54.498;18.544;2023-07-30T14:03:23;21.77;71.54
71206;SHT31;58935;54.498;18.544;2023-07-30T14:05:48;21.76;72.44
71206;SHT31;58935;54.498;18.544;2023-07-30T14:08:13;21.67;73.17
71206;SHT31;58935;54.498;18.544;2023-07-30T14:10:39;21.64;73.46
71206;SHT31;58935;54.498;18.544;2023-07-30T14:13:04;21.68;73.12
71206;SHT31;58935;54.498;18.544;2023-07-30T14:15:30;21.74;72.83
71206;SHT31;58935;54.498;18.544;2023-07-30T14:17:59;21.90;72.99
71206;SHT31;58935;54.498;18.544;2023-07-30T14:20:24;22.09;72.83
71206;SHT31;58935;54.498;18.544;2023-07-30T14:22:49;22.29;72.31
71206;SHT31;58935;54.498;18.544;2023-07-30T14:25:16;22.42;70.72
71206;SHT31;58935;54.498;18.544;2023-07-30T14:27:42;22.48;70.43
71206;SHT31;58935;54.498;18.544;2023-07-30T14:30:07;22.48;70.47
71206;SHT31;58935;54.498;18.544;2023-07-30T14:32:33;22.41;71.37
71206;SHT31;58935;54.498;18.544;2023-07-30T14:34:59;22.20;71.25
71206;SHT31;58935;54.498;18.544;2023-07-30T14:37:24;21.90;71.75
71206;SHT31;58935;54.498;18.544;2023-07-30T14:39:49;21.70;72.61
71206;SHT31;58935;54.498;18.544;2023-07-30T14:42:15;21.65;73.08
71206;SHT31;58935;54.498;18.544;2023-07-30T14:44:40;21.71;73.28
71206;SHT31;58935;54.498;18.544;2023-07-30T14:47:05;21.80;73.39
71206;SHT31;58935;54.498;18.544;2023-07-30T14:49:33;21.96;73.38
71206;SHT31;58935;54.498;18.544;2023-07-30T14:52:03;22.15;72.74
71206;SHT31;58935;54.498;18.544;2023-07-30T14:54:29;22.23;72.26
71206;SHT31;58935;54.498;18.544;2023-07-30T14:56:55;22.33;72.13
71206;SHT31;58935;54.498;18.544;2023-07-30T14:59:20;22.41;71.66
71206;SHT31;58935;54.498;18.544;2023-07-30T15:01:48;22.50;71.24
71206;SHT31;58935;54.498;18.544;2023-07-30T15:04:13;22.59;70.82
71206;SHT31;58935;54.498;18.544;2023-07-30T15:06:39;22.70;70.38
71206;SHT31;58935;54.498;18.544;2023-07-30T15:09:04;22.77;69.41
71206;SHT31;58935;54.498;18.544;2023-07-30T15:11:30;22.79;69.21
71206;SHT31;58935;54.498;18.544;2023-07-30T15:13:55;22.82;69.25
71206;SHT31;58935;54.498;18.544;2023-07-30T15:16:21;22.81;68.97
71206;SHT31;58935;54.498;18.544;2023-07-30T15:18:46;22.86;69.15